createdAt,value
2022-10-30T00:01:02.023Z,101840.38
2022-10-30T00:03:28.370Z,101840.38
2022-10-30T00:05:55.237Z,101843.63
2022-10-30T00:08:25.493Z,101836.81
2022-10-30T00:10:52.335Z,101843.94
2022-10-30T00:13:19.555Z,101852.91
2022-10-30T00:15:54.214Z,101855.97
2022-10-30T00:18:20.970Z,101859.88
2022-10-30T00:20:48.205Z,101854.94
2022-10-30T00:23:15.441Z,101831.00
2022-10-30T00:25:41.877Z,101853.94
2022-10-30T00:28:10.767Z,101845.47
2022-10-30T00:30:37.542Z,101842.44
2022-10-30T00:33:04.056Z,101842.25
2022-10-30T00:35:31.036Z,101845.44
2022-10-30T00:37:57.955Z,101855.41
2022-10-30T00:40:24.549Z,101842.75
2022-10-30T00:42:50.998Z,101845.28
2022-10-30T00:45:17.887Z,101843.09
2022-10-30T00:47:58.105Z,101849.16
2022-10-30T00:50:32.094Z,101838.16
2022-10-30T00:53:11.680Z,101834.28
2022-10-30T00:55:44.570Z,101835.66
2022-10-30T00:58:15.353Z,101834.34
2022-10-30T01:00:46.301Z,101836.66
2022-10-30T01:03:13.071Z,101836.34
2022-10-30T01:05:40.249Z,101833.34
2022-10-30T01:08:06.667Z,101829.56
2022-10-30T01:10:33.442Z,101830.63
2022-10-30T01:13:01.157Z,101835.41
2022-10-30T01:15:34.670Z,101834.88
2022-10-30T01:18:01.218Z,101826.94
2022-10-30T01:20:43.405Z,101826.94
2022-10-30T01:23:28.433Z,101833.50
2022-10-30T01:26:06.531Z,101840.44
2022-10-30T01:28:40.790Z,101837.56
2022-10-30T01:31:42.286Z,101835.03
2022-10-30T01:34:30.735Z,101843.13
2022-10-30T01:37:06.393Z,101842.13
2022-10-30T01:39:37.177Z,101845.47
2022-10-30T01:42:28.815Z,101840.91
2022-10-30T01:44:55.390Z,101832.34
2022-10-30T01:47:43.275Z,101847.53
2022-10-30T01:50:22.675Z,101843.66
2022-10-30T01:52:58.459Z,101845.69
2022-10-30T01:55:42.490Z,101828.47
2022-10-30T01:58:19.964Z,101843.13
2022-10-30T02:00:52.573Z,101834.53
2022-10-30T02:03:19.505Z,101842.16
2022-10-30T02:05:49.039Z,101845.72
2022-10-30T02:08:15.668Z,101835.56
2022-10-30T02:10:44.577Z,101826.63
2022-10-30T02:13:11.268Z,101847.56
2022-10-30T02:15:38.604Z,101840.78
2022-10-30T02:18:05.267Z,101855.16
2022-10-30T02:20:32.176Z,101860.38
2022-10-30T02:22:59.539Z,101850.75
2022-10-30T02:25:26.837Z,101826.81
2022-10-30T02:27:53.289Z,101854.47
2022-10-30T02:30:19.658Z,101850.22
2022-10-30T02:32:46.006Z,101853.97
2022-10-30T02:35:12.513Z,101859.03
2022-10-30T02:37:39.576Z,101858.00
2022-10-30T02:40:08.211Z,101860.75
2022-10-30T02:42:35.149Z,101856.00
2022-10-30T02:45:01.577Z,101838.63
2022-10-30T02:47:30.922Z,101853.28
2022-10-30T02:49:57.295Z,101857.69
2022-10-30T02:52:23.637Z,101825.63
2022-10-30T02:54:49.975Z,101835.56
2022-10-30T02:57:16.383Z,101835.41
2022-10-30T02:59:42.726Z,101875.56
2022-10-30T03:02:09.158Z,101879.94
2022-10-30T03:04:35.558Z,101876.75
2022-10-30T03:07:01.901Z,101875.09
2022-10-30T03:09:28.444Z,101877.94
2022-10-30T03:11:54.914Z,101871.84
2022-10-30T03:14:21.280Z,101859.69
2022-10-30T03:16:47.635Z,101871.16
2022-10-30T03:19:14.001Z,101873.19
2022-10-30T03:21:40.347Z,101873.22
2022-10-30T03:24:06.794Z,101869.31
2022-10-30T03:26:33.211Z,101861.56
2022-10-30T03:28:59.552Z,101880.78
2022-10-30T03:31:25.924Z,101880.63
2022-10-30T03:33:52.457Z,101876.25
2022-10-30T03:36:18.843Z,101877.78
2022-10-30T03:38:45.179Z,101889.41
2022-10-30T03:41:11.542Z,101880.13
2022-10-30T03:43:38.038Z,101881.31
2022-10-30T03:46:04.877Z,101889.25
2022-10-30T03:48:31.349Z,101887.53
2022-10-30T03:50:59.850Z,101865.94
2022-10-30T03:53:28.402Z,101893.44
2022-10-30T03:56:00.098Z,101900.72
2022-10-30T03:58:27.838Z,101903.25
2022-10-30T04:00:54.826Z,101886.56
2022-10-30T04:03:21.485Z,101895.13
2022-10-30T04:05:50.974Z,101893.63
2022-10-30T04:08:17.902Z,101891.94
2022-10-30T04:10:45.493Z,101899.00
2022-10-30T04:13:14.069Z,101898.84
2022-10-30T04:15:40.668Z,101894.28
2022-10-30T04:18:10.496Z,101899.38
2022-10-30T04:20:36.892Z,101900.19
2022-10-30T04:23:06.060Z,101895.44
2022-10-30T04:25:35.051Z,101907.59
2022-10-30T04:28:02.322Z,101902.53
2022-10-30T04:30:31.268Z,101897.97
2022-10-30T04:32:58.273Z,101914.47
2022-10-30T04:35:27.569Z,101911.34
2022-10-30T04:37:55.004Z,101910.16
2022-10-30T04:40:22.575Z,101913.84
2022-10-30T04:42:49.310Z,101884.59
2022-10-30T04:45:15.877Z,101912.81
2022-10-30T04:47:42.491Z,101912.94
2022-10-30T04:50:09.508Z,101914.50
2022-10-30T04:52:36.465Z,101913.31
2022-10-30T04:55:03.664Z,101910.09
2022-10-30T04:57:31.648Z,101914.66
2022-10-30T04:59:58.593Z,101912.06
2022-10-30T05:02:25.531Z,101911.03
2022-10-30T05:04:52.105Z,101905.66
2022-10-30T05:07:18.747Z,101899.31
2022-10-30T05:09:45.138Z,101903.22
2022-10-30T05:12:11.553Z,101909.28
2022-10-30T05:14:38.014Z,101909.91
2022-10-30T05:17:04.411Z,101911.03
2022-10-30T05:19:30.762Z,101908.28
2022-10-30T05:21:57.174Z,101913.13
2022-10-30T05:24:23.607Z,101912.50
2022-10-30T05:26:50.516Z,101895.09
2022-10-30T05:29:16.853Z,101917.09
2022-10-30T05:31:43.205Z,101913.75
2022-10-30T05:34:09.618Z,101914.09
2022-10-30T05:36:35.988Z,101878.16
2022-10-30T05:39:02.976Z,101900.75
2022-10-30T05:41:30.031Z,101877.63
2022-10-30T05:43:56.670Z,101898.22
2022-10-30T05:46:23.078Z,101894.16
2022-10-30T05:48:49.445Z,101893.13
2022-10-30T05:51:15.784Z,101897.16
2022-10-30T05:53:42.135Z,101889.13
2022-10-30T05:56:08.481Z,101887.44
2022-10-30T05:58:34.858Z,101891.34
2022-10-30T06:01:05.535Z,101888.19
2022-10-30T06:03:31.897Z,101860.47
2022-10-30T06:05:58.240Z,101896.09
2022-10-30T06:08:24.655Z,101865.66
2022-10-30T06:10:50.994Z,101892.88
2022-10-30T06:13:17.454Z,101895.88
2022-10-30T06:15:45.219Z,101895.38
2022-10-30T06:18:11.556Z,101884.75
2022-10-30T06:20:37.916Z,101892.38
2022-10-30T06:23:06.981Z,101860.06
2022-10-30T06:25:40.671Z,101898.97
2022-10-30T06:28:07.670Z,101900.63
2022-10-30T06:30:34.042Z,101899.50
2022-10-30T06:33:02.143Z,101906.59
2022-10-30T06:35:29.024Z,101907.28
2022-10-30T06:37:56.486Z,101912.41
2022-10-30T06:40:23.593Z,101909.34
2022-10-30T06:42:51.889Z,101906.47
2022-10-30T06:45:20.111Z,101921.84
2022-10-30T06:47:46.838Z,101911.06
2022-10-30T06:50:15.952Z,101924.88
2022-10-30T06:52:42.577Z,101931.56
2022-10-30T06:55:10.220Z,101906.09
2022-10-30T06:57:37.266Z,101929.56
2022-10-30T07:00:05.186Z,101929.41
2022-10-30T07:02:31.583Z,101932.69
2022-10-30T07:04:58.002Z,101941.91
2022-10-30T07:07:24.445Z,101943.75
2022-10-30T07:09:50.910Z,101935.31
2022-10-30T07:12:17.640Z,101933.47
2022-10-30T07:14:45.373Z,101925.22
2022-10-30T07:17:13.824Z,101937.72
2022-10-30T07:19:40.178Z,101939.13
2022-10-30T07:22:06.525Z,101935.09
2022-10-30T07:24:32.859Z,101934.78
2022-10-30T07:26:59.210Z,101932.09
2022-10-30T07:29:25.564Z,101928.47
2022-10-30T07:32:02.316Z,101926.16
2022-10-30T07:34:29.724Z,101923.78
2022-10-30T07:36:56.093Z,101920.41
2022-10-30T07:39:22.444Z,101926.50
2022-10-30T07:41:50.591Z,101927.00
2022-10-30T07:44:17.465Z,101938.47
2022-10-30T07:46:43.920Z,101919.59
2022-10-30T07:49:10.324Z,101914.56
2022-10-30T07:51:36.672Z,101926.22
2022-10-30T07:54:03.147Z,101935.84
2022-10-30T07:56:29.574Z,101924.88
2022-10-30T07:58:55.908Z,101931.13
2022-10-30T08:01:22.422Z,101923.16
2022-10-30T08:03:48.870Z,101935.00
2022-10-30T08:06:15.249Z,101923.69
2022-10-30T08:08:43.326Z,101914.66
2022-10-30T08:11:09.891Z,101927.56
2022-10-30T08:13:36.255Z,101895.16
2022-10-30T08:16:02.602Z,101880.25
2022-10-30T08:18:29.035Z,101903.19
2022-10-30T08:20:55.407Z,101906.78
2022-10-30T08:23:21.969Z,101912.56
2022-10-30T08:25:48.502Z,101910.63
2022-10-30T08:28:14.857Z,101914.19
2022-10-30T08:30:41.493Z,101899.81
2022-10-30T08:33:13.335Z,101897.00
2022-10-30T08:35:47.068Z,101896.44
2022-10-30T08:38:13.421Z,101896.59
2022-10-30T08:40:39.753Z,101891.78
2022-10-30T08:43:06.086Z,101903.91
2022-10-30T08:45:32.533Z,101902.66
2022-10-30T08:48:01.360Z,101907.06
2022-10-30T08:50:28.164Z,101911.63
2022-10-30T08:52:54.906Z,101906.88
2022-10-30T08:55:21.741Z,101907.28
2022-10-30T08:57:48.126Z,101910.06
2022-10-30T09:00:14.699Z,101914.50
2022-10-30T09:02:41.243Z,101898.81
2022-10-30T09:05:09.030Z,101908.91
2022-10-30T09:07:35.920Z,101923.16
2022-10-30T09:10:02.820Z,101902.56
2022-10-30T09:12:29.451Z,101908.53
2022-10-30T09:14:56.070Z,101908.06
2022-10-30T09:17:22.740Z,101899.25
2022-10-30T09:19:49.184Z,101908.50
2022-10-30T09:22:16.869Z,101898.84
2022-10-30T09:24:43.210Z,101908.50
2022-10-30T09:27:09.607Z,101910.56
2022-10-30T09:29:36.159Z,101906.97
2022-10-30T09:32:05.016Z,101910.59
2022-10-30T09:34:31.375Z,101902.94
2022-10-30T09:36:57.720Z,101905.75
2022-10-30T09:39:25.272Z,101905.75
2022-10-30T09:42:11.070Z,101905.31
2022-10-30T09:45:27.759Z,101895.75
2022-10-30T09:48:10.802Z,101915.84
2022-10-30T09:50:53.353Z,101909.75
2022-10-30T09:53:32.717Z,101901.34
2022-10-30T09:56:23.759Z,101896.16
2022-10-30T09:59:17.610Z,101900.97
2022-10-30T10:01:58.317Z,101879.91
2022-10-30T10:04:44.399Z,101900.72
2022-10-30T10:07:31.437Z,101905.16
2022-10-30T10:10:05.438Z,101907.34
2022-10-30T10:12:41.037Z,101908.31
2022-10-30T10:15:17.200Z,101899.09
2022-10-30T10:17:45.836Z,101910.94
2022-10-30T10:20:34.519Z,101911.66
2022-10-30T10:23:11.958Z,101912.47
2022-10-30T10:25:44.138Z,101905.44
2022-10-30T10:28:29.785Z,101905.38
2022-10-30T10:31:10.831Z,101914.50
2022-10-30T10:33:57.790Z,101917.66
2022-10-30T10:36:44.518Z,101893.50
2022-10-30T10:39:25.694Z,101912.50
2022-10-30T10:42:09.156Z,101899.47
2022-10-30T10:44:54.246Z,101904.59
2022-10-30T10:47:26.512Z,101905.53
2022-10-30T10:50:02.998Z,101907.63
2022-10-30T10:52:37.964Z,101905.22
2022-10-30T10:55:12.808Z,101898.50
2022-10-30T10:57:41.808Z,101876.16
2022-10-30T11:00:15.067Z,101897.84
2022-10-30T11:02:57.963Z,101897.84
2022-10-30T11:05:29.870Z,101887.81
2022-10-30T11:08:03.954Z,101881.94
2022-10-30T11:10:30.318Z,101881.38
2022-10-30T11:12:56.915Z,101876.56
2022-10-30T11:15:29.622Z,101875.84
2022-10-30T11:18:03.689Z,101874.63
2022-10-30T11:20:48.541Z,101876.16
2022-10-30T11:23:44.106Z,101879.34
2022-10-30T11:26:22.907Z,101885.16
2022-10-30T11:29:20.269Z,101872.69
2022-10-30T11:31:47.135Z,101854.63
2022-10-30T11:34:17.369Z,101895.78
2022-10-30T11:36:51.133Z,101863.97
2022-10-30T11:39:22.823Z,101876.59
2022-10-30T11:42:06.407Z,101902.38
2022-10-30T11:44:45.329Z,101899.56
2022-10-30T11:47:15.518Z,101899.53
2022-10-30T11:49:48.389Z,101891.34
2022-10-30T11:52:18.125Z,101891.94
2022-10-30T11:54:53.224Z,101895.25
2022-10-30T11:57:24.444Z,101888.75
2022-10-30T11:59:56.561Z,101880.34
2022-10-30T12:02:28.712Z,101868.66
2022-10-30T12:05:00.963Z,101881.13
2022-10-30T12:07:31.695Z,101855.25
2022-10-30T12:09:59.358Z,101882.31
2022-10-30T12:12:25.672Z,101872.34
2022-10-30T12:14:52.727Z,101881.75
2022-10-30T12:17:21.518Z,101878.78
2022-10-30T12:19:54.849Z,101875.41
2022-10-30T12:22:39.539Z,101865.44
2022-10-30T12:25:18.275Z,101874.28
2022-10-30T12:27:44.993Z,101870.41
2022-10-30T12:30:21.295Z,101866.34
2022-10-30T12:33:12.313Z,101828.38
2022-10-30T12:35:55.416Z,101862.06
2022-10-30T12:38:34.324Z,101858.50
2022-10-30T12:41:14.541Z,101845.00
2022-10-30T12:43:45.766Z,101847.56
2022-10-30T12:46:21.261Z,101846.94
2022-10-30T12:48:57.387Z,101849.97
2022-10-30T12:51:33.007Z,101848.22
2022-10-30T12:54:09.550Z,101853.38
2022-10-30T12:56:40.182Z,101849.50
2022-10-30T12:59:32.944Z,101849.09
2022-10-30T13:02:15.766Z,101847.09
2022-10-30T13:04:47.950Z,101844.75
2022-10-30T13:07:26.957Z,101845.16
2022-10-30T13:10:08.812Z,101842.84
2022-10-30T13:12:39.448Z,101842.06
2022-10-30T13:15:18.231Z,101836.03
2022-10-30T13:17:44.587Z,101841.63
2022-10-30T13:20:14.182Z,101829.63
2022-10-30T13:22:51.592Z,101829.84
2022-10-30T13:25:24.330Z,101820.06
2022-10-30T13:28:06.121Z,101823.75
2022-10-30T13:30:39.335Z,101811.13
2022-10-30T13:33:22.032Z,101814.25
2022-10-30T13:36:20.501Z,101809.19
2022-10-30T13:38:46.800Z,101812.56
2022-10-30T13:41:21.879Z,101820.00
2022-10-30T13:44:31.424Z,101788.34
2022-10-30T13:47:34.281Z,101826.53
2022-10-30T13:50:15.848Z,101826.53
2022-10-30T13:52:47.226Z,101811.88
2022-10-30T13:55:19.765Z,101826.38
2022-10-30T13:57:46.077Z,101819.44
2022-10-30T14:00:33.987Z,101818.19
2022-10-30T14:03:16.569Z,101809.41
2022-10-30T14:05:53.294Z,101812.34
2022-10-30T14:08:33.149Z,101812.53
2022-10-30T14:11:01.115Z,101810.28
2022-10-30T14:13:33.473Z,101810.69
2022-10-30T14:16:05.887Z,101816.19
2022-10-30T14:18:44.606Z,101820.16
2022-10-30T14:21:32.176Z,101821.84
2022-10-30T14:24:03.960Z,101807.56
2022-10-30T14:26:30.704Z,101814.50
2022-10-30T14:28:57.129Z,101819.53
2022-10-30T14:31:35.641Z,101817.03
2022-10-30T14:34:02.258Z,101820.16
2022-10-30T14:36:34.416Z,101826.25
2022-10-30T14:39:10.456Z,101820.78
2022-10-30T14:42:04.458Z,101822.69
2022-10-30T14:45:03.083Z,101824.56
2022-10-30T14:47:54.414Z,101814.44
2022-10-30T14:50:26.811Z,101814.03
2022-10-30T14:53:24.305Z,101813.84
2022-10-30T14:56:01.782Z,101814.00
2022-10-30T14:58:33.212Z,101809.41
2022-10-30T15:01:44.831Z,101811.50
2022-10-30T15:05:09.675Z,101813.59
2022-10-30T15:07:49.206Z,101805.19
2022-10-30T15:10:34.697Z,101804.97
2022-10-30T15:13:21.862Z,101799.50
2022-10-30T15:15:58.842Z,101797.63
2022-10-30T15:18:29.432Z,101803.03
2022-10-30T15:21:04.017Z,101809.31
2022-10-30T15:23:34.041Z,101805.13
2022-10-30T15:26:09.172Z,101807.16
2022-10-30T15:28:38.742Z,101806.13
2022-10-30T15:31:06.461Z,101802.09
2022-10-30T15:33:37.561Z,101801.97
2022-10-30T15:36:05.351Z,101809.03
2022-10-30T15:38:32.113Z,101810.66
2022-10-30T15:41:01.932Z,101794.94
2022-10-30T15:43:35.507Z,101827.56
2022-10-30T15:46:07.991Z,101826.19
2022-10-30T15:48:35.802Z,101801.84
2022-10-30T15:51:06.052Z,101841.72
2022-10-30T15:53:43.451Z,101846.53
2022-10-30T15:56:20.106Z,101845.03
2022-10-30T15:58:54.283Z,101824.50
2022-10-30T16:01:26.194Z,101853.44
2022-10-30T16:03:54.085Z,101835.78
2022-10-30T16:06:25.382Z,101862.34
2022-10-30T16:08:52.070Z,101869.84
2022-10-30T16:11:20.926Z,101834.00
2022-10-30T16:13:47.673Z,101870.13
2022-10-30T16:16:22.059Z,101865.44
2022-10-30T16:18:49.175Z,101865.34
2022-10-30T16:21:18.599Z,101858.31
2022-10-30T16:23:51.874Z,101863.59
2022-10-30T16:26:38.132Z,101866.94
2022-10-30T16:29:07.263Z,101852.50
2022-10-30T16:31:36.163Z,101843.75
2022-10-30T16:34:05.166Z,101844.47
2022-10-30T16:36:32.360Z,101834.38
2022-10-30T16:38:58.983Z,101804.56
2022-10-30T16:41:28.010Z,101850.38
2022-10-30T16:44:12.790Z,101843.72
2022-10-30T16:46:46.264Z,101839.69
2022-10-30T16:49:18.218Z,101838.03
2022-10-30T16:51:45.098Z,101833.72
2022-10-30T16:54:25.131Z,101838.22
2022-10-30T16:56:55.549Z,101850.81
2022-10-30T16:59:35.369Z,101844.78
2022-10-30T17:02:12.563Z,101847.19
2022-10-30T17:04:42.686Z,101867.38
2022-10-30T17:07:37.030Z,101857.94
2022-10-30T17:10:23.830Z,101875.50
2022-10-30T17:12:50.225Z,101882.84
2022-10-30T17:15:20.902Z,101899.84
2022-10-30T17:18:11.787Z,101890.97
2022-10-30T17:20:38.213Z,101895.28
2022-10-30T17:23:16.170Z,101890.41
2022-10-30T17:25:42.602Z,101876.66
2022-10-30T17:28:26.906Z,101887.22
2022-10-30T17:30:53.376Z,101902.44
2022-10-30T17:33:30.070Z,101905.78
2022-10-30T17:35:56.598Z,101925.69
2022-10-30T17:38:22.960Z,101923.91
2022-10-30T17:40:49.545Z,101913.13
2022-10-30T17:43:16.738Z,101941.84
2022-10-30T17:45:44.177Z,101943.47
2022-10-30T17:48:13.932Z,101947.22
2022-10-30T17:50:40.934Z,101951.78
2022-10-30T17:53:15.087Z,101962.75
2022-10-30T17:55:44.147Z,101974.44
2022-10-30T17:58:11.019Z,101972.44
2022-10-30T18:00:37.434Z,101972.06
2022-10-30T18:03:04.501Z,101975.78
2022-10-30T18:05:33.590Z,101973.63
2022-10-30T18:08:00.013Z,101978.75
2022-10-30T18:10:26.589Z,101979.66
2022-10-30T18:12:52.944Z,101963.75
2022-10-30T18:15:28.236Z,101975.56
2022-10-30T18:17:54.862Z,101973.53
2022-10-30T18:20:21.811Z,101977.56
2022-10-30T18:22:48.286Z,101977.19
2022-10-30T18:25:35.349Z,101973.78
2022-10-30T18:28:02.603Z,101949.78
2022-10-30T18:30:29.409Z,101987.34
2022-10-30T18:32:56.644Z,101977.56
2022-10-30T18:35:30.385Z,101980.09
2022-10-30T18:37:57.769Z,101977.72
2022-10-30T18:40:24.780Z,101969.44
2022-10-30T18:42:51.478Z,101980.75
2022-10-30T18:45:19.887Z,101991.44
2022-10-30T18:47:47.009Z,101964.75
2022-10-30T18:50:13.934Z,101986.31
2022-10-30T18:52:40.748Z,101996.50
2022-10-30T18:55:23.710Z,102001.94
2022-10-30T18:57:52.020Z,101978.94
2022-10-30T19:00:23.523Z,101995.84
2022-10-30T19:02:50.002Z,101985.31
2022-10-30T19:05:40.226Z,101981.09
2022-10-30T19:08:07.175Z,101978.94
2022-10-30T19:10:36.573Z,101984.28
2022-10-30T19:13:16.007Z,101969.72
2022-10-30T19:15:46.238Z,101980.91
2022-10-30T19:18:13.055Z,101968.38
2022-10-30T19:20:58.875Z,101945.78
2022-10-30T19:23:26.533Z,101973.53
2022-10-30T19:25:53.477Z,101959.88
2022-10-30T19:28:21.178Z,101943.94
2022-10-30T19:30:54.620Z,101969.94
2022-10-30T19:33:22.618Z,101979.47
2022-10-30T19:36:01.095Z,101988.63
2022-10-30T19:38:28.213Z,101982.56
2022-10-30T19:40:54.605Z,101981.41
2022-10-30T19:43:21.094Z,102005.25
2022-10-30T19:45:51.248Z,102009.31
2022-10-30T19:48:40.508Z,102019.28
2022-10-30T19:51:09.267Z,102023.69
2022-10-30T19:53:35.740Z,102032.00
2022-10-30T19:56:02.331Z,102039.91
2022-10-30T19:58:28.750Z,102030.63
2022-10-30T20:00:55.558Z,102035.00
2022-10-30T20:03:22.083Z,102044.47
2022-10-30T20:05:52.066Z,102054.28
2022-10-30T20:08:19.929Z,102061.75
2022-10-30T20:11:02.267Z,102068.66
2022-10-30T20:13:29.794Z,102083.38
2022-10-30T20:15:58.716Z,102096.69
2022-10-30T20:18:30.128Z,102101.28
2022-10-30T20:20:59.200Z,102093.84
2022-10-30T20:23:26.448Z,102101.94
2022-10-30T20:25:55.303Z,102114.13
2022-10-30T20:28:26.735Z,102107.19
2022-10-30T20:30:54.205Z,102106.53
2022-10-30T20:33:21.664Z,102113.25
2022-10-30T20:35:49.848Z,102104.47
2022-10-30T20:38:29.137Z,102108.38
2022-10-30T20:40:58.241Z,102105.00
2022-10-30T20:43:40.266Z,102105.69
2022-10-30T20:46:09.807Z,102091.47
2022-10-30T20:48:37.985Z,102099.25
2022-10-30T20:51:06.013Z,102105.34
2022-10-30T20:53:32.692Z,102119.34
2022-10-30T20:55:59.141Z,102123.91
2022-10-30T20:58:26.758Z,102114.75
2022-10-30T21:00:58.272Z,102134.34
2022-10-30T21:03:26.503Z,102124.53
2022-10-30T21:05:58.426Z,102131.66
2022-10-30T21:08:29.248Z,102115.03
2022-10-30T21:11:00.200Z,102133.16
2022-10-30T21:13:27.255Z,102142.03
2022-10-30T21:15:53.996Z,102149.75
2022-10-30T21:18:20.546Z,102146.00
2022-10-30T21:20:46.950Z,102156.09
2022-10-30T21:23:13.369Z,102161.13
2022-10-30T21:25:39.801Z,102160.44
2022-10-30T21:28:06.217Z,102170.09
2022-10-30T21:30:32.632Z,102169.53
2022-10-30T21:32:59.638Z,102185.38
2022-10-30T21:35:27.102Z,102189.28
2022-10-30T21:37:53.567Z,102191.44
2022-10-30T21:40:19.934Z,102193.47
2022-10-30T21:42:49.170Z,102200.13
2022-10-30T21:45:15.868Z,102202.19
2022-10-30T21:47:42.358Z,102198.44
2022-10-30T21:50:12.207Z,102199.00
2022-10-30T21:52:39.598Z,102198.88
2022-10-30T21:55:06.266Z,102198.22
2022-10-30T21:57:32.594Z,102169.53
2022-10-30T22:00:01.762Z,102186.22
2022-10-30T22:02:32.621Z,102192.81
2022-10-30T22:04:58.966Z,102182.88
2022-10-30T22:07:25.309Z,102169.19
2022-10-30T22:09:53.418Z,102178.50
2022-10-30T22:12:19.790Z,102178.28
2022-10-30T22:14:46.131Z,102171.25
2022-10-30T22:17:12.826Z,102170.88
2022-10-30T22:19:39.263Z,102165.63
2022-10-30T22:22:06.710Z,102169.41
2022-10-30T22:24:33.083Z,102173.44
2022-10-30T22:26:59.439Z,102178.34
2022-10-30T22:29:25.852Z,102175.25
2022-10-30T22:31:52.248Z,102183.25
2022-10-30T22:34:18.618Z,102178.16
2022-10-30T22:36:45.059Z,102185.41
2022-10-30T22:39:13.340Z,102182.50
2022-10-30T22:41:40.569Z,102186.13
2022-10-30T22:44:10.630Z,102184.72
2022-10-30T22:46:37.253Z,102156.69
2022-10-30T22:49:04.310Z,102180.81
2022-10-30T22:51:32.466Z,102186.03
2022-10-30T22:54:01.556Z,102162.13
2022-10-30T22:56:30.750Z,102192.31
2022-10-30T22:59:00.030Z,102198.53
2022-10-30T23:01:29.363Z,102212.50
2022-10-30T23:03:57.886Z,102203.56
2022-10-30T23:06:25.035Z,102212.34
2022-10-30T23:08:52.659Z,102212.63
2022-10-30T23:11:19.561Z,102214.97
2022-10-30T23:13:46.646Z,102213.97
2022-10-30T23:16:15.642Z,102207.19
2022-10-30T23:18:42.640Z,102216.81
2022-10-30T23:21:15.901Z,102206.88
2022-10-30T23:23:43.525Z,102212.66
2022-10-30T23:26:18.377Z,102212.88
2022-10-30T23:28:45.489Z,102208.50
2022-10-30T23:31:28.400Z,102201.63
2022-10-30T23:34:00.294Z,102207.53
2022-10-30T23:36:26.945Z,102217.44
2022-10-30T23:38:54.844Z,102201.66
2022-10-30T23:41:22.788Z,102220.91
2022-10-30T23:43:53.294Z,102230.00
2022-10-30T23:46:19.699Z,102227.78
2022-10-30T23:48:46.086Z,102233.31
2022-10-30T23:51:12.539Z,102237.69
2022-10-30T23:53:38.936Z,102233.28
2022-10-30T23:56:06.078Z,102233.88
2022-10-30T23:58:32.894Z,102226.41
